Warning: Javascript must be enabled to use all the features on this page!


Page Loading - Please Wait...

Click to hideNews Bulletins
Click to hide state-specific text

Explore Real-time Water Data Using New Products from USGS TXWSC

View over 750 USGS real-time stream, lake, reservoir, precipitation, and groundwater stations in context with current weather and hazard conditions on both desktop and mobile devices.

Click to go to the Texas Water Dashboard Click to go to the WATER On-the-go app

Follow @USGS_TexasFlood and @USGS_TexasRain on Twitter to get current water level and precipitation data during flooding or severe rainfall events.


USGS 08195000 Frio Rv at Concan, TX

PROVISIONAL DATA SUBJECT TO REVISION

Click to hidestation-specific text
Funding for this site is provided by the cooperators / programs below:
Click to go to the Edwards Aquifer Authority web page

Edwards Aquifer Authority

Click to go to the Cooperative Matching Funds web page

Cooperative Matching Funds

 

Rainfall Disclaimer


retransmission, forecasts and summary of this location by the National Weather Service
Retransmission, forecasts and summary by the National Weather Service
This station managed by the San Antonio Field Unit.

Available Parameters Available Period
All 6 Available Parameters for this site
  
00010 Temperature, water 2013-07-25  2018-10-23
00045 Precipitation 2018-06-25  2018-10-23
00060 Discharge 1991-10-01  2018-10-23
00065 Gage height 2007-10-01  2018-10-23
00095 Specific cond at 25C 2013-07-02  2018-10-23
99133 NO3+NO2,water,insitu 2015-09-24  2018-10-23

Graph
Graph w/ stats
Graph w/o stats
Graph w/ (up to 3) parms
Table
Tab-separated
Days  (2)
 

  -- or --
Begin date
 

End date
 

Summary of all available data for this site
Instantaneous-data availability statement






Date / Time




Gage
height,
feet,




Dis-
charge,
ft3/s,



Precip-
itation
total,
inches,
Specif-
ic
conduc-
tance,
wat unf
uS/cm @
25 degC,



Temper-
ature,
water,
deg C,

Nitrate
+
nitrite
water,
in situ
mg/L as,
10/21/2018 00:00 CDT5.48P  1,300P  0.00P  518P  20.2P  1.53P  
10/21/2018 00:15 CDT5.49P  1,310P  0.00P  518P  20.2P     
10/21/2018 00:30 CDT5.48P  1,300P  0.00P  518P  20.1P     
10/21/2018 00:45 CDT5.47P  1,290P  0.00P  519P  20.1P     
10/21/2018 01:00 CDT5.47P  1,290P  0.00P  519P  20.1P  1.54P  
10/21/2018 01:15 CDT5.47P  1,290P  0.00P  519P  20.0P     
10/21/2018 01:30 CDT5.48P  1,300P  0.00P  519P  20.0P     
10/21/2018 01:45 CDT5.48P  1,300P  0.00P  519P  20.0P     
10/21/2018 02:00 CDT5.49P  1,310P  0.00P  519P  20.0P  1.54P  
10/21/2018 02:15 CDT5.47P  1,290P  0.00P  519P  19.9P     
10/21/2018 02:30 CDT5.47P  1,290P  0.00P  519P  19.9P     
10/21/2018 02:45 CDT5.47P  1,290P  0.00P  519P  19.9P     
10/21/2018 03:00 CDT5.48P  1,300P  0.00P  520P  19.8P  1.54P  
10/21/2018 03:15 CDT5.48P  1,300P  0.00P  520P  19.8P     
10/21/2018 03:30 CDT5.47P  1,290P  0.00P  519P  19.8P     
10/21/2018 03:45 CDT5.47P  1,290P  0.00P  519P  19.8P     
10/21/2018 04:00 CDT5.47P  1,290P  0.00P  520P  19.7P  1.54P  
10/21/2018 04:15 CDT5.46P  1,280P  0.00P  519P  19.7P     
10/21/2018 04:30 CDT5.46P  1,280P  0.00P  527P  19.7P     
10/21/2018 04:45 CDT5.46P  1,280P  0.00P  520P  19.7P     
10/21/2018 05:00 CDT5.46P  1,280P  0.00P  520P  19.6P  1.53P  
10/21/2018 05:15 CDT5.45P  1,260P  0.00P  520P  19.6P     
10/21/2018 05:30 CDT5.47P  1,290P  0.00P  520P  19.6P     
10/21/2018 05:45 CDT5.45P  1,260P  0.00P  521P  19.6P     
10/21/2018 06:00 CDT5.45P  1,260P  0.00P  520P  19.6P  1.53P  
10/21/2018 06:15 CDT5.46P  1,280P  0.00P  520P  19.5P     
10/21/2018 06:30 CDT5.45P  1,260P  0.00P  521P  19.5P     
10/21/2018 06:45 CDT5.46P  1,280P  0.00P  521P  19.5P     
10/21/2018 07:00 CDT5.44P  1,250P  0.00P  520P  19.5P  1.52P  
10/21/2018 07:15 CDT5.44P  1,250P  0.00P  521P  19.4P     
10/21/2018 07:30 CDT5.46P  1,280P  0.00P  521P  19.4P     
10/21/2018 07:45 CDT5.45P  1,260P  0.00P  521P  19.4P     
10/21/2018 08:00 CDT5.44P  1,250P  0.00P  521P  19.4P  1.52P  
10/21/2018 08:15 CDT5.43P  1,240P  0.00P  521P  19.4P     
10/21/2018 08:30 CDT5.43P  1,240P  0.00P  521P  19.4P     
10/21/2018 08:45 CDT5.44P  1,250P  0.00P  522P  19.3P     
10/21/2018 09:00 CDT5.45P  1,260P  0.00P  521P  19.3P  1.54P  
10/21/2018 09:15 CDT5.44P  1,250P  0.00P  521P  19.3P     
10/21/2018 09:30 CDT5.43P  1,240P  0.00P  521P  19.3P     
10/21/2018 09:45 CDT5.44P  1,250P  0.00P  521P  19.3P     
10/21/2018 10:00 CDT5.44P  1,250P  0.00P  522P  19.3P  1.52P  
10/21/2018 10:15 CDT5.43P  1,240P  0.00P  522P  19.3P     
10/21/2018 10:30 CDT5.44P  1,250P  0.00P  522P  19.3P     
10/21/2018 10:45 CDT5.43P  1,240P  0.00P  522P  19.3P     
10/21/2018 11:00 CDT5.42P  1,230P  0.00P  523P  19.3P  1.51P  
10/21/2018 11:15 CDT5.43P  1,240P  0.00P  522P  19.4P     
10/21/2018 11:30 CDT5.42P  1,230P  0.00P  523P  19.4P     
10/21/2018 11:45 CDT5.42P  1,230P  0.00P  523P  19.4P     
10/21/2018 12:00 CDT5.41P  1,220P  0.00P  523P  19.5P  1.47P  
10/21/2018 12:15 CDT5.44P  1,250P  0.00P  523P  19.5P     
10/21/2018 12:30 CDT5.43P  1,240P  0.00P  523P  19.6P     
10/21/2018 12:45 CDT5.42P  1,230P  0.00P  523P  19.6P     
10/21/2018 13:00 CDT5.42P  1,230P  0.00P  523P  19.6P  1.48P  
10/21/2018 13:15 CDT5.41P  1,220P  0.00P  523P  19.7P     
10/21/2018 13:30 CDT5.41P  1,220P  0.00P  524P  19.7P     
10/21/2018 13:45 CDT5.42P  1,230P  0.00P  523P  19.8P     
10/21/2018 14:00 CDT5.40P  1,210P  0.00P  524P  19.8P  1.52P  
10/21/2018 14:15 CDT5.40P  1,210P  0.00P  523P  19.9P     
10/21/2018 14:30 CDT5.42P  1,230P  0.00P  523P  19.9P     
10/21/2018 14:45 CDT5.42P  1,230P  0.00P  523P  19.9P     
10/21/2018 15:00 CDT5.41P  1,220P  0.00P  523P  20.0P  1.52P  
10/21/2018 15:15 CDT5.41P  1,220P  0.00P  523P  20.0P     
10/21/2018 15:30 CDT5.40P  1,210P  0.00P  523P  20.0P     
10/21/2018 15:45 CDT5.41P  1,220P  0.00P  523P  20.0P     
10/21/2018 16:00 CDT5.40P  1,210P  0.00P  523P  20.1P  1.52P  
10/21/2018 16:15 CDT5.41P  1,220P  0.00P  523P  20.1P     
10/21/2018 16:30 CDT5.40P  1,210P  0.00P  522P  20.2P     
10/21/2018 16:45 CDT5.40P  1,210P  0.00P  522P  20.2P     
10/21/2018 17:00 CDT5.40P  1,210P  0.00P  523P  20.2P  1.52P  
10/21/2018 17:15 CDT5.40P  1,210P  0.00P  522P  20.2P     
10/21/2018 17:30 CDT5.39P  1,200P  0.00P  523P  20.3P     
10/21/2018 17:45 CDT5.39P  1,200P  0.00P  522P  20.3P     
10/21/2018 18:00 CDT5.39P  1,200P  0.00P  522P  20.3P  1.52P  
10/21/2018 18:15 CDT5.40P  1,210P  0.00P  523P  20.4P     
10/21/2018 18:30 CDT5.40P  1,210P  0.00P  522P  20.4P     
10/21/2018 18:45 CDT5.39P  1,200P  0.00P  522P  20.4P     
10/21/2018 19:00 CDT5.39P  1,200P  0.00P  522P  20.4P  1.50P  
10/21/2018 19:15 CDT5.38P  1,190P  0.00P  522P  20.4P     
10/21/2018 19:30 CDT5.39P  1,200P  0.00P  522P  20.4P     
10/21/2018 19:45 CDT5.39P  1,200P  0.00P  522P  20.4P     
10/21/2018 20:00 CDT5.38P  1,190P  0.00P  522P  20.4P  1.53P  
10/21/2018 20:15 CDT5.40P  1,210P  0.00P  522P  20.4P     
10/21/2018 20:30 CDT5.37P  1,180P  0.00P  523P  20.4P     
10/21/2018 20:45 CDT5.39P  1,200P  0.00P  523P  20.4P     
10/21/2018 21:00 CDT5.38P  1,190P  0.00P  523P  20.4P  1.53P  
10/21/2018 21:15 CDT5.38P  1,190P  0.00P  523P  20.3P     
10/21/2018 21:30 CDT5.38P  1,190P  0.00P  523P  20.3P     
10/21/2018 21:45 CDT5.36P  1,170P  0.00P  523P  20.3P     
10/21/2018 22:00 CDT5.38P  1,190P  0.00P  523P  20.2P  1.54P  
10/21/2018 22:15 CDT5.39P  1,200P  0.00P  523P  20.2P     
10/21/2018 22:30 CDT5.37P  1,180P  0.00P  523P  20.2P     
10/21/2018 22:45 CDT5.37P  1,180P  0.00P  523P  20.2P     
10/21/2018 23:00 CDT5.37P  1,180P  0.00P  523P  20.1P  1.54P  
10/21/2018 23:15 CDT5.39P  1,200P  0.00P  523P  20.1P     
10/21/2018 23:30 CDT5.38P  1,190P  0.00P  523P  20.1P     
10/21/2018 23:45 CDT5.37P  1,180P  0.00P  524P  20.1P     
10/22/2018 00:00 CDT5.37P  1,180P  0.00P  523P  20.0P  1.55P  
10/22/2018 00:15 CDT5.38P  1,190P  0.00P  523P  20.0P     
10/22/2018 00:30 CDT5.37P  1,180P  0.00P  523P  20.0P     
10/22/2018 00:45 CDT5.36P  1,170P  0.00P  524P  20.0P     
10/22/2018 01:00 CDT5.37P  1,180P  0.00P  524P  19.9P  1.53P  
10/22/2018 01:15 CDT5.36P  1,170P  0.00P  524P  19.9P     
10/22/2018 01:30 CDT5.35P  1,160P  0.00P  524P  19.9P     
10/22/2018 01:45 CDT5.35P  1,160P  0.00P  524P  19.8P     
10/22/2018 02:00 CDT5.37P  1,180P  0.00P  524P  19.8P  1.55P  
10/22/2018 02:15 CDT5.36P  1,170P  0.00P  524P  19.8P     
10/22/2018 02:30 CDT5.36P  1,170P  0.00P  524P  19.8P     
10/22/2018 02:45 CDT5.35P  1,160P  0.00P  525P  19.8P     
10/22/2018 03:00 CDT5.36P  1,170P  0.00P  525P  19.8P  1.54P  
10/22/2018 03:15 CDT5.35P  1,160P  0.00P  524P  19.7P     
10/22/2018 03:30 CDT5.35P  1,160P  0.00P  524P  19.7P     
10/22/2018 03:45 CDT5.35P  1,160P  0.00P  525P  19.7P     
10/22/2018 04:00 CDT5.35P  1,160P  0.00P  525P  19.7P  1.55P  
10/22/2018 04:15 CDT5.35P  1,160P  0.00P  525P  19.7P     
10/22/2018 04:30 CDT5.35P  1,160P  0.00P  525P  19.6P     
10/22/2018 04:45 CDT5.35P  1,160P  0.00P  525P  19.6P     
10/22/2018 05:00 CDT5.37P  1,180P  0.00P  525P  19.6P  1.54P  
10/22/2018 05:15 CDT5.35P  1,160P  0.00P  526P  19.6P     
10/22/2018 05:30 CDT5.35P  1,160P  0.00P  525P  19.6P     
10/22/2018 05:45 CDT5.34P  1,150P  0.00P  526P  19.6P     
10/22/2018 06:00 CDT5.35P  1,160P  0.00P  526P  19.6P  1.54P  
10/22/2018 06:15 CDT5.36P  1,170P  0.00P  526P  19.5P     
10/22/2018 06:30 CDT5.35P  1,160P  0.00P  525P  19.5P     
10/22/2018 06:45 CDT5.34P  1,150P  0.00P  526P  19.5P     
10/22/2018 07:00 CDT5.35P  1,160P  0.00P  525P  19.5P  1.54P  
10/22/2018 07:15 CDT5.34P  1,150P  0.00P  526P  19.5P     
10/22/2018 07:30 CDT5.35P  1,160P  0.00P  526P  19.5P     
10/22/2018 07:45 CDT5.34P  1,150P  0.00P  526P  19.4P     
10/22/2018 08:00 CDT5.35P  1,160P  0.00P  526P  19.4P  1.53P  
10/22/2018 08:15 CDT5.33P  1,140P  0.00P  526P  19.4P     
10/22/2018 08:30 CDT5.35P  1,160P  0.00P  526P  19.4P     
10/22/2018 08:45 CDT5.34P  1,150P  0.00P  526P  19.4P     
10/22/2018 09:00 CDT5.33P  1,140P  0.00P  527P  19.4P  1.52P  
10/22/2018 09:15 CDT5.33P  1,140P  0.00P  526P  19.4P     
10/22/2018 09:30 CDT5.36P  1,170P  0.00P  526P  19.4P     
10/22/2018 09:45 CDT5.34P  1,150P  0.00P  526P  19.4P     
10/22/2018 10:00 CDT5.34P  1,150P  0.00P  526P  19.4P  1.54P  
10/22/2018 10:15 CDT5.34P  1,150P  0.00P  526P  19.4P     
10/22/2018 10:30 CDT5.32P  1,130P  0.00P  527P  19.4P     
10/22/2018 10:45 CDT5.34P  1,150P  0.00P  527P  19.4P     
10/22/2018 11:00 CDT5.34P  1,150P  0.00P  526P  19.4P  1.50P  
10/22/2018 11:15 CDT5.33P  1,140P  0.00P  527P  19.4P     
10/22/2018 11:30 CDT5.33P  1,140P  0.00P  527P  19.4P     
10/22/2018 11:45 CDT5.33P  1,140P  0.00P  527P  19.5P     
10/22/2018 12:00 CDT5.33P  1,140P  0.00P  527P  19.5P  1.54P  
10/22/2018 12:15 CDT5.33P  1,140P  0.00P  527P  19.5P     
10/22/2018 12:30 CDT5.33P  1,140P  0.00P  527P  19.5P     
10/22/2018 12:45 CDT5.32P  1,130P  0.00P  528P  19.5P     
10/22/2018 13:00 CDT5.33P  1,140P  0.00P  527P  19.6P  1.48P  
10/22/2018 13:15 CDT5.32P  1,130P  0.00P  528P  19.6P     
10/22/2018 13:30 CDT5.32P  1,130P  0.00P  527P  19.6P     
10/22/2018 13:45 CDT5.32P  1,130P  0.00P  527P  19.6P     
10/22/2018 14:00 CDT5.31P  1,120P  0.00P  527P  19.6P  1.53P  
10/22/2018 14:15 CDT5.32P  1,130P  0.00P  527P  19.6P     
10/22/2018 14:30 CDT5.32P  1,130P  0.00P  527P  19.7P     
10/22/2018 14:45 CDT5.30P  1,110P  0.00P  527P  19.7P     
10/22/2018 15:00 CDT5.32P  1,130P  0.00P  527P  19.7P  1.53P  
10/22/2018 15:15 CDT5.31P  1,120P  0.01P  530P  19.7P     
10/22/2018 15:30 CDT5.32P  1,130P  0.01P  526P  19.7P     
10/22/2018 15:45 CDT5.32P  1,130P  0.00P  526P  19.7P     
10/22/2018 16:00 CDT5.32P  1,130P  0.01P  526P  19.7P  1.52P  
10/22/2018 16:15 CDT5.33P  1,140P  0.02P  526P  19.7P     
10/22/2018 16:30 CDT5.32P  1,130P  0.01P  525P  19.7P     
10/22/2018 16:45 CDT5.32P  1,130P  0.01P  526P  19.7P     
10/22/2018 17:00 CDT5.32P  1,130P  0.03P  526P  19.7P  1.54P  
10/22/2018 17:15 CDT5.32P  1,130P  0.04P  524P  19.7P     
10/22/2018 17:30 CDT5.33P  1,140P  0.01P  524P  19.7P     
10/22/2018 17:45 CDT5.33P  1,140P  0.02P  524P  19.6P     
10/22/2018 18:00 CDT5.31P  1,120P  0.02P  524P  19.6P  1.51P  
10/22/2018 18:15 CDT5.33P  1,140P  0.01P  523P  19.6P     
10/22/2018 18:30 CDT5.34P  1,150P  0.01P  523P  19.6P     
10/22/2018 18:45 CDT5.32P  1,130P  0.01P  523P  19.6P     
10/22/2018 19:00 CDT5.33P  1,140P  0.01P  523P  19.6P  1.52P  
10/22/2018 19:15 CDT5.33P  1,140P  0.02P  523P  19.6P     
10/22/2018 19:30 CDT5.33P  1,140P  0.00P  523P  19.6P     
10/22/2018 19:45 CDT5.34P  1,150P  0.00P  522P  19.5P     
10/22/2018 20:00 CDT5.33P  1,140P  0.01P  522P  19.5P  1.54P  
10/22/2018 20:15 CDT5.33P  1,140P  0.00P  522P  19.5P     
10/22/2018 20:30 CDT5.33P  1,140P  0.00P  522P  19.5P     
10/22/2018 20:45 CDT5.34P  1,150P  0.01P  523P  19.5P     
10/22/2018 21:00 CDT5.32P  1,130P  0.00P  522P  19.4P  1.54P  
10/22/2018 21:15 CDT5.33P  1,140P  0.00P  522P  19.4P     
10/22/2018 21:30 CDT5.32P  1,130P  0.01P  522P  19.4P     
10/22/2018 21:45 CDT5.33P  1,140P  0.00P  523P  19.4P     
10/22/2018 22:00 CDT5.33P  1,140P  0.00P  522P  19.4P  1.53P  
10/22/2018 22:15 CDT5.33P  1,140P  0.00P  522P  19.4P     
10/22/2018 22:30 CDT5.33P  1,140P  0.00P  523P  19.3P     
10/22/2018 22:45 CDT5.32P  1,130P  0.01P  522P  19.3P     
10/22/2018 23:00 CDT5.32P  1,130P  0.00P  522P  19.3P  1.53P  
10/22/2018 23:15 CDT5.31P  1,120P  0.00P  522P  19.3P     
10/22/2018 23:30 CDT5.32P  1,130P  0.01P  522P  19.3P     
10/22/2018 23:45 CDT5.32P  1,130P  0.01P  522P  19.3P     
10/23/2018 00:00 CDT5.33P  1,140P  0.00P  522P  19.2P  1.53P  
10/23/2018 00:15 CDT5.31P  1,120P  0.01P  522P  19.2P     
10/23/2018 00:30 CDT5.32P  1,130P  0.00P  522P  19.2P     
10/23/2018 00:45 CDT5.32P  1,130P  0.00P  523P  19.2P     
10/23/2018 01:00 CDT5.32P  1,130P  0.01P  522P  19.2P  1.53P  
10/23/2018 01:15 CDT5.33P  1,140P  0.00P  523P  19.2P     
10/23/2018 01:30 CDT5.31P  1,120P  0.00P  523P  19.2P     
10/23/2018 01:45 CDT5.31P  1,120P  0.00P  523P  19.2P     
10/23/2018 02:00 CDT5.31P  1,120P  0.00P  523P  19.1P  1.50P  
10/23/2018 02:15 CDT5.32P  1,130P  0.00P  523P  19.1P     
10/23/2018 02:30 CDT5.31P  1,120P  0.00P  523P  19.1P     
10/23/2018 02:45 CDT5.32P  1,130P  0.00P  524P  19.1P     
10/23/2018 03:00 CDT5.32P  1,130P  0.00P  524P  19.1P  1.53P  
10/23/2018 03:15 CDT5.31P  1,120P  0.01P  524P  19.1P     
10/23/2018 03:30 CDT5.30P  1,110P  0.00P  524P  19.1P     
10/23/2018 03:45 CDT5.30P  1,110P  0.00P  524P  19.1P     
10/23/2018 04:00 CDT5.31P  1,120P  0.00P  524P  19.1P  1.53P  
10/23/2018 04:15 CDT5.29P  1,100P  0.00P  524P  19.0P     
10/23/2018 04:30 CDT5.30P  1,110P  0.00P  524P  19.0P     
10/23/2018 04:45 CDT5.30P  1,110P  0.00P  524P  19.0P     
10/23/2018 05:00 CDT5.29P  1,100P  0.00P  525P  19.0P  1.53P  
10/23/2018 05:15 CDT5.30P  1,110P  0.00P  525P  19.0P     
10/23/2018 05:30 CDT5.31P  1,120P  0.00P  525P  19.0P     
10/23/2018 05:45 CDT5.30P  1,110P  0.00P  525P  19.0P     
10/23/2018 06:00 CDT5.30P  1,110P  0.00P  525P  19.0P  1.51P  
10/23/2018 06:15 CDT5.30P  1,110P  0.00P  525P  19.0P     
10/23/2018 06:30 CDT5.29P  1,100P  0.00P  525P  19.0P     
10/23/2018 06:45 CDT5.29P  1,100P  0.00P  525P  19.0P     
10/23/2018 07:00 CDT5.31P  1,120P  0.00P  526P  19.0P  1.54P  
10/23/2018 07:15 CDT5.29P  1,100P  0.00P  525P  19.0P     
10/23/2018 07:30 CDT5.30P  1,110P  0.00P  525P  19.0P     
10/23/2018 07:45 CDT5.28P  1,090P  0.00P  526P  19.0P     
10/23/2018 08:00 CDT5.29P  1,100P  0.00P  525P  19.0P  1.52P  
10/23/2018 08:15 CDT5.28P  1,090P  0.00P  526P  19.0P     
10/23/2018 08:30 CDT5.28P  1,090P  0.00P  526P  19.0P     
10/23/2018 08:45 CDT5.28P  1,090P  0.00P  526P  19.0P     
10/23/2018 09:00 CDT5.29P  1,100P  0.00P  526P  19.0P  1.53P  
10/23/2018 09:15 CDT5.29P  1,100P  0.00P  526P  19.0P     
10/23/2018 09:30 CDT5.29P  1,100P  0.00P  526P  19.0P     
10/23/2018 09:45 CDT5.28P  1,090P  0.00P  526P  19.0P     
10/23/2018 10:00 CDT5.28P  1,090P  0.00P  526P  19.0P  1.50P  
10/23/2018 10:15 CDT5.28P  1,090P  0.00P  526P  19.0P     
10/23/2018 10:30 CDT5.27P  1,080P  0.00P  526P  19.0P     
10/23/2018 10:45 CDT5.28P  1,090P  0.00P  526P  19.0P     
10/23/2018 11:00 CDT5.28P  1,090P  0.00P  526P  19.0P  1.52P  
10/23/2018 11:15 CDT5.28P  1,090P  0.00P  526P  19.0P     
10/23/2018 11:30 CDT5.27P  1,080P  0.00P  527P  19.1P     
10/23/2018 11:45 CDT5.26P  1,070P  0.00P  527P  19.1P     
10/23/2018 12:00 CDT5.27P  1,080P  0.00P  527P  19.1P  1.50P  
10/23/2018 12:15 CDT5.27P  1,080P  0.00P  527P  19.1P     
10/23/2018 12:30 CDT5.26P  1,070P  0.00P  527P  19.2P     
10/23/2018 12:45 CDT5.26P  1,070P  0.00P  526P  19.2P     
10/23/2018 13:00 CDT5.27P  1,080P  0.00P  527P  19.2P  1.53P  
10/23/2018 13:15 CDT5.27P  1,080P  0.00P  527P  19.2P     
10/23/2018 13:30 CDT5.25P  1,060P  0.00P  527P  19.2P     
10/23/2018 13:45 CDT5.26P  1,070P  0.00P  527P  19.3P     
10/23/2018 14:00 CDT5.26P  1,070P  0.00P  526P  19.3P  1.52P  
10/23/2018 14:15 CDT5.26P  1,070P  0.00P  527P  19.3P     
10/23/2018 14:30 CDT5.25P  1,060P  0.00P  527P  19.3P     
10/23/2018 14:45 CDT5.26P  1,070P  0.00P  527P  19.4P     
10/23/2018 15:00 CDT5.26P  1,070P  0.00P  527P  19.4P  1.53P  
10/23/2018 15:15 CDT5.27P  1,080P  0.00P  528P  19.4P     
10/23/2018 15:30 CDT5.26P  1,070P  0.00P  527P  19.4P     
10/23/2018 15:45 CDT5.26P  1,070P  0.00P  527P  19.5P     
10/23/2018 16:00 CDT5.26P  1,070P  0.00P  527P  19.5P  1.53P  
10/23/2018 16:15 CDT5.25P  1,060P  0.00P  527P  19.5P     
10/23/2018 16:30 CDT5.26P  1,070P  0.00P  526P  19.5P     
10/23/2018 16:45 CDT5.25P  1,060P  0.00P  527P  19.6P     
10/23/2018 17:00 CDT5.25P  1,060P  0.00P  526P  19.6P  1.50P  
10/23/2018 17:15 CDT5.25P  1,060P  0.00P  526P  19.6P     
10/23/2018 17:30 CDT5.25P  1,060P  0.00P  526P  19.6P     
10/23/2018 17:45 CDT5.24P  1,050P  0.01P  526P  19.6P     
10/23/2018 18:00 CDT5.24P  1,050P  0.00P  526P  19.6P  1.52P  
10/23/2018 18:15 CDT5.24P  1,050P  0.00P  526P  19.6P     
10/23/2018 18:30 CDT5.25P  1,060P  0.00P  526P  19.6P     
10/23/2018 18:45 CDT5.24P  1,050P  0.00P  526P        
10/23/2018 19:00 CDT5.25P  1,060P  0.01P  526P        

Explanation
  P  Provisional data subject to revision.